sensor_id;sensor_type;location;lat;lon;timestamp;pressure;altitude;pressure_sealevel;temperature;humidity
30724;BME280;17473;52.286;20.930;2022-10-04T00:01:54;99970.22;;;10.86;100.00
30724;BME280;17473;52.286;20.930;2022-10-04T00:04:46;99971.81;;;10.79;100.00
30724;BME280;17473;52.286;20.930;2022-10-04T00:07:21;99976.38;;;10.87;100.00
30724;BME280;17473;52.286;20.930;2022-10-04T00:12:49;99957.84;;;10.84;100.00
30724;BME280;17473;52.286;20.930;2022-10-04T00:15:24;99963.38;;;10.93;100.00
30724;BME280;17473;52.286;20.930;2022-10-04T00:25:57;99954.13;;;11.10;100.00
30724;BME280;17473;52.286;20.930;2022-10-04T00:31:17;99943.22;;;10.98;100.00
30724;BME280;17473;52.286;20.930;2022-10-04T00:36:45;99942.94;;;11.22;100.00
30724;BME280;17473;52.286;20.930;2022-10-04T00:39:35;99944.88;;;10.93;100.00
30724;BME280;17473;52.286;20.930;2022-10-04T00:43:01;99943.13;;;10.95;100.00
30724;BME280;17473;52.286;20.930;2022-10-04T00:45:44;99948.31;;;10.90;100.00
30724;BME280;17473;52.286;20.930;2022-10-04T00:54:17;99947.50;;;10.93;100.00
30724;BME280;17473;52.286;20.930;2022-10-04T00:56:57;99944.41;;;11.09;100.00
30724;BME280;17473;52.286;20.930;2022-10-04T00:59:42;99948.41;;;10.95;100.00
30724;BME280;17473;52.286;20.930;2022-10-04T01:02:36;99946.84;;;11.02;100.00
30724;BME280;17473;52.286;20.930;2022-10-04T01:05:14;99939.59;;;10.93;100.00
30724;BME280;17473;52.286;20.930;2022-10-04T01:08:10;99944.94;;;10.96;100.00
30724;BME280;17473;52.286;20.930;2022-10-04T01:10:49;99941.41;;;10.95;100.00
30724;BME280;17473;52.286;20.930;2022-10-04T01:13:22;99930.34;;;11.10;100.00
30724;BME280;17473;52.286;20.930;2022-10-04T01:16:03;99936.28;;;11.03;100.00
30724;BME280;17473;52.286;20.930;2022-10-04T01:18:35;99930.09;;;11.01;100.00
30724;BME280;17473;52.286;20.930;2022-10-04T01:26:38;99939.19;;;10.77;100.00
30724;BME280;17473;52.286;20.930;2022-10-04T01:31:54;99936.53;;;10.77;100.00
30724;BME280;17473;52.286;20.930;2022-10-04T01:34:27;99926.88;;;10.78;100.00
30724;BME280;17473;52.286;20.930;2022-10-04T01:36:57;99931.09;;;10.71;100.00
30724;BME280;17473;52.286;20.930;2022-10-04T01:39:27;99929.06;;;10.61;100.00
30724;BME280;17473;52.286;20.930;2022-10-04T01:43:01;99937.38;;;10.76;100.00
30724;BME280;17473;52.286;20.930;2022-10-04T01:45:52;99941.50;;;10.65;100.00
30724;BME280;17473;52.286;20.930;2022-10-04T01:48:06;99945.00;;;10.64;100.00
30724;BME280;17473;52.286;20.930;2022-10-04T01:50:43;99948.25;;;10.54;100.00
30724;BME280;17473;52.286;20.930;2022-10-04T01:53:42;99957.41;;;10.68;100.00
30724;BME280;17473;52.286;20.930;2022-10-04T01:56:16;99947.38;;;10.53;100.00
30724;BME280;17473;52.286;20.930;2022-10-04T01:58:58;99949.09;;;10.53;100.00
30724;BME280;17473;52.286;20.930;2022-10-04T02:02:05;99955.31;;;10.55;100.00
30724;BME280;17473;52.286;20.930;2022-10-04T02:04:37;99956.13;;;10.52;100.00
30724;BME280;17473;52.286;20.930;2022-10-04T02:07:12;99956.88;;;10.48;100.00
30724;BME280;17473;52.286;20.930;2022-10-04T02:09:45;99955.78;;;10.40;100.00
30724;BME280;17473;52.286;20.930;2022-10-04T02:12:17;99963.88;;;10.46;100.00
30724;BME280;17473;52.286;20.930;2022-10-04T02:14:49;99959.75;;;10.56;100.00
30724;BME280;17473;52.286;20.930;2022-10-04T02:17:24;99962.28;;;10.53;100.00
30724;BME280;17473;52.286;20.930;2022-10-04T02:19:53;99952.84;;;10.61;99.82
30724;BME280;17473;52.286;20.930;2022-10-04T02:22:22;99956.84;;;10.46;99.83
30724;BME280;17473;52.286;20.930;2022-10-04T02:24:54;99956.59;;;10.37;100.00
30724;BME280;17473;52.286;20.930;2022-10-04T02:27:29;99961.91;;;10.39;100.00
30724;BME280;17473;52.286;20.930;2022-10-04T02:30:03;99958.25;;;10.35;100.00
30724;BME280;17473;52.286;20.930;2022-10-04T02:32:32;99964.72;;;10.45;99.91
30724;BME280;17473;52.286;20.930;2022-10-04T02:35:19;99962.50;;;10.60;98.67
30724;BME280;17473;52.286;20.930;2022-10-04T02:37:53;99959.81;;;10.59;97.70
30724;BME280;17473;52.286;20.930;2022-10-04T02:40:28;99964.78;;;10.46;99.28
30724;BME280;17473;52.286;20.930;2022-10-04T02:43:02;99960.47;;;10.50;98.90
30724;BME280;17473;52.286;20.930;2022-10-04T02:45:42;99961.03;;;10.38;99.38
30724;BME280;17473;52.286;20.930;2022-10-04T02:51:53;99965.03;;;10.56;97.55
30724;BME280;17473;52.286;20.930;2022-10-04T02:54:47;99961.41;;;10.52;97.73
30724;BME280;17473;52.286;20.930;2022-10-04T02:57:21;99957.88;;;10.52;98.48
30724;BME280;17473;52.286;20.930;2022-10-04T02:59:51;99961.91;;;10.39;98.68
30724;BME280;17473;52.286;20.930;2022-10-04T03:02:29;99964.53;;;10.37;99.41
30724;BME280;17473;52.286;20.930;2022-10-04T03:05:08;99960.38;;;10.47;98.91
30724;BME280;17473;52.286;20.930;2022-10-04T03:07:37;99962.06;;;10.45;99.05
30724;BME280;17473;52.286;20.930;2022-10-04T03:10:11;99966.38;;;10.41;99.15
30724;BME280;17473;52.286;20.930;2022-10-04T03:12:39;99968.38;;;10.48;99.29
30724;BME280;17473;52.286;20.930;2022-10-04T03:15:09;99962.97;;;10.45;99.90
30724;BME280;17473;52.286;20.930;2022-10-04T03:17:40;99962.69;;;10.68;99.57
30724;BME280;17473;52.286;20.930;2022-10-04T03:20:10;99958.91;;;10.57;100.00
30724;BME280;17473;52.286;20.930;2022-10-04T03:22:44;99968.66;;;10.59;100.00
30724;BME280;17473;52.286;20.930;2022-10-04T03:25:29;99965.06;;;10.57;100.00
30724;BME280;17473;52.286;20.930;2022-10-04T03:28:00;99967.41;;;10.46;100.00
30724;BME280;17473;52.286;20.930;2022-10-04T03:30:29;99964.13;;;10.55;100.00
30724;BME280;17473;52.286;20.930;2022-10-04T03:32:57;99966.31;;;10.38;100.00
30724;BME280;17473;52.286;20.930;2022-10-04T03:35:36;99968.53;;;10.56;100.00
30724;BME280;17473;52.286;20.930;2022-10-04T03:38:08;99972.16;;;10.60;100.00
30724;BME280;17473;52.286;20.930;2022-10-04T03:40:41;99971.13;;;10.53;100.00
30724;BME280;17473;52.286;20.930;2022-10-04T03:43:11;99976.56;;;10.59;100.00
30724;BME280;17473;52.286;20.930;2022-10-04T03:45:41;99975.59;;;10.56;100.00
30724;BME280;17473;52.286;20.930;2022-10-04T03:48:12;99971.44;;;10.65;100.00
30724;BME280;17473;52.286;20.930;2022-10-04T03:50:46;99975.03;;;10.68;100.00
30724;BME280;17473;52.286;20.930;2022-10-04T03:53:31;99974.00;;;10.62;100.00
30724;BME280;17473;52.286;20.930;2022-10-04T03:56:07;99983.22;;;10.78;100.00
30724;BME280;17473;52.286;20.930;2022-10-04T03:58:35;99982.13;;;10.70;100.00
30724;BME280;17473;52.286;20.930;2022-10-04T04:01:12;99980.88;;;10.56;100.00
30724;BME280;17473;52.286;20.930;2022-10-04T04:03:53;99969.66;;;10.64;100.00
30724;BME280;17473;52.286;20.930;2022-10-04T04:06:23;99984.25;;;10.84;100.00
30724;BME280;17473;52.286;20.930;2022-10-04T04:08:53;99981.03;;;10.62;100.00
30724;BME280;17473;52.286;20.930;2022-10-04T04:11:26;99976.59;;;10.61;100.00
30724;BME280;17473;52.286;20.930;2022-10-04T04:14:11;99981.41;;;10.76;100.00
30724;BME280;17473;52.286;20.930;2022-10-04T04:16:40;99984.63;;;10.65;100.00
30724;BME280;17473;52.286;20.930;2022-10-04T04:19:12;99987.41;;;10.70;100.00
30724;BME280;17473;52.286;20.930;2022-10-04T04:21:41;99986.78;;;10.79;100.00
30724;BME280;17473;52.286;20.930;2022-10-04T04:24:29;99989.16;;;10.70;100.00
30724;BME280;17473;52.286;20.930;2022-10-04T04:27:00;99997.72;;;10.61;100.00
30724;BME280;17473;52.286;20.930;2022-10-04T04:29:57;100000.34;;;10.61;100.00
30724;BME280;17473;52.286;20.930;2022-10-04T04:32:43;100000.28;;;10.58;100.00
30724;BME280;17473;52.286;20.930;2022-10-04T04:35:31;100004.94;;;10.68;100.00
30724;BME280;17473;52.286;20.930;2022-10-04T04:38:21;100005.78;;;10.99;100.00
30724;BME280;17473;52.286;20.930;2022-10-04T04:40:49;100007.69;;;10.71;100.00
30724;BME280;17473;52.286;20.930;2022-10-04T04:43:25;100009.97;;;10.91;100.00
30724;BME280;17473;52.286;20.930;2022-10-04T04:45:53;100014.88;;;10.77;100.00
30724;BME280;17473;52.286;20.930;2022-10-04T04:48:48;100003.25;;;10.70;100.00
30724;BME280;17473;52.286;20.930;2022-10-04T04:51:22;100004.34;;;10.78;100.00
30724;BME280;17473;52.286;20.930;2022-10-04T04:53:51;100012.41;;;10.83;100.00
30724;BME280;17473;52.286;20.930;2022-10-04T04:56:24;100009.59;;;10.77;100.00
30724;BME280;17473;52.286;20.930;2022-10-04T04:58:53;100018.47;;;10.79;100.00
30724;BME280;17473;52.286;20.930;2022-10-04T05:01:30;100018.53;;;10.82;100.00
30724;BME280;17473;52.286;20.930;2022-10-04T05:06:32;100033.66;;;10.88;100.00
30724;BME280;17473;52.286;20.930;2022-10-04T05:08:59;100042.50;;;10.90;100.00
30724;BME280;17473;52.286;20.930;2022-10-04T05:11:35;100037.56;;;11.02;100.00
30724;BME280;17473;52.286;20.930;2022-10-04T05:14:11;100045.97;;;10.87;100.00
30724;BME280;17473;52.286;20.930;2022-10-04T05:19:23;100039.34;;;11.03;100.00
30724;BME280;17473;52.286;20.930;2022-10-04T05:22:00;100045.75;;;11.11;100.00
30724;BME280;17473;52.286;20.930;2022-10-04T05:24:36;100057.78;;;11.00;100.00
30724;BME280;17473;52.286;20.930;2022-10-04T05:27:49;100060.28;;;10.95;100.00
30724;BME280;17473;52.286;20.930;2022-10-04T05:32:59;100068.47;;;11.05;99.91
30724;BME280;17473;52.286;20.930;2022-10-04T05:35:28;100071.22;;;11.09;100.00
30724;BME280;17473;52.286;20.930;2022-10-04T05:38:25;100073.25;;;11.20;100.00
30724;BME280;17473;52.286;20.930;2022-10-04T05:41:35;100082.16;;;11.23;99.29
30724;BME280;17473;52.286;20.930;2022-10-04T05:44:29;100089.41;;;11.32;99.67
30724;BME280;17473;52.286;20.930;2022-10-04T05:46:59;100094.69;;;11.31;100.00
30724;BME280;17473;52.286;20.930;2022-10-04T05:49:39;100096.41;;;11.30;100.00
30724;BME280;17473;52.286;20.930;2022-10-04T05:52:33;100097.59;;;11.41;99.74
30724;BME280;17473;52.286;20.930;2022-10-04T05:55:56;100105.88;;;11.55;99.01
30724;BME280;17473;52.286;20.930;2022-10-04T06:06:48;100103.66;;;12.08;95.82
30724;BME280;17473;52.286;20.930;2022-10-04T06:09:43;100109.69;;;12.02;94.82
30724;BME280;17473;52.286;20.930;2022-10-04T06:15:47;100102.31;;;12.28;93.23
30724;BME280;17473;52.286;20.930;2022-10-04T06:19:05;100123.50;;;12.68;90.34
30724;BME280;17473;52.286;20.930;2022-10-04T06:24:35;100124.94;;;12.14;93.83
30724;BME280;17473;52.286;20.930;2022-10-04T06:27:10;100121.34;;;12.10;93.75
30724;BME280;17473;52.286;20.930;2022-10-04T06:30:00;100127.91;;;12.26;92.22
30724;BME280;17473;52.286;20.930;2022-10-04T06:39:07;100135.13;;;12.33;93.22
30724;BME280;17473;52.286;20.930;2022-10-04T06:42:36;100140.16;;;12.23;93.31
30724;BME280;17473;52.286;20.930;2022-10-04T06:50:29;100144.50;;;12.59;91.45
30724;BME280;17473;52.286;20.930;2022-10-04T07:01:37;100162.84;;;12.49;92.48
30724;BME280;17473;52.286;20.930;2022-10-04T07:04:35;100166.88;;;12.33;93.02
30724;BME280;17473;52.286;20.930;2022-10-04T07:07:38;100173.41;;;12.89;90.47
30724;BME280;17473;52.286;20.930;2022-10-04T07:21:21;100193.25;;;12.68;90.81
30724;BME280;17473;52.286;20.930;2022-10-04T07:23:58;100206.38;;;12.62;90.92
30724;BME280;17473;52.286;20.930;2022-10-04T07:26:45;100210.81;;;13.05;88.44
30724;BME280;17473;52.286;20.930;2022-10-04T07:29:36;100206.59;;;13.14;87.87
30724;BME280;17473;52.286;20.930;2022-10-04T07:32:27;100217.22;;;12.73;89.53
30724;BME280;17473;52.286;20.930;2022-10-04T07:37:43;100207.56;;;12.77;89.17
30724;BME280;17473;52.286;20.930;2022-10-04T07:43:31;100217.84;;;13.03;86.97
30724;BME280;17473;52.286;20.930;2022-10-04T07:46:54;100221.41;;;13.03;86.81
30724;BME280;17473;52.286;20.930;2022-10-04T07:49:25;100227.47;;;12.97;86.88
30724;BME280;17473;52.286;20.930;2022-10-04T07:52:22;100233.06;;;13.11;85.83
30724;BME280;17473;52.286;20.930;2022-10-04T07:57:57;100236.88;;;13.26;84.39
30724;BME280;17473;52.286;20.930;2022-10-04T08:01:00;100249.25;;;13.25;84.04
30724;BME280;17473;52.286;20.930;2022-10-04T08:04:02;100247.41;;;13.23;84.12
30724;BME280;17473;52.286;20.930;2022-10-04T08:09:49;100245.56;;;13.19;84.12
30724;BME280;17473;52.286;20.930;2022-10-04T08:12:29;100244.03;;;13.30;83.56
30724;BME280;17473;52.286;20.930;2022-10-04T08:21:05;100251.97;;;13.73;81.35
30724;BME280;17473;52.286;20.930;2022-10-04T08:24:02;100252.09;;;13.35;82.71
30724;BME280;17473;52.286;20.930;2022-10-04T08:26:56;100255.03;;;13.95;79.74
30724;BME280;17473;52.286;20.930;2022-10-04T08:32:53;100258.25;;;14.29;77.84
30724;BME280;17473;52.286;20.930;2022-10-04T08:35:49;100242.53;;;14.41;77.21
30724;BME280;17473;52.286;20.930;2022-10-04T08:48:05;100267.38;;;14.43;75.89
30724;BME280;17473;52.286;20.930;2022-10-04T09:05:58;100294.75;;;15.63;69.84
30724;BME280;17473;52.286;20.930;2022-10-04T09:12:45;100283.03;;;15.49;69.08
30724;BME280;17473;52.286;20.930;2022-10-04T09:18:50;100295.72;;;15.72;67.39
30724;BME280;17473;52.286;20.930;2022-10-04T09:30:42;100300.16;;;15.03;69.27
30724;BME280;17473;52.286;20.930;2022-10-04T09:34:19;100306.66;;;15.24;67.77
30724;BME280;17473;52.286;20.930;2022-10-04T09:52:25;100334.78;;;15.07;68.02
30724;BME280;17473;52.286;20.930;2022-10-04T09:55:32;100329.84;;;14.71;69.84
30724;BME280;17473;52.286;20.930;2022-10-04T10:04:00;100337.84;;;15.36;68.38
30724;BME280;17473;52.286;20.930;2022-10-04T10:06:44;100341.91;;;15.11;68.82
30724;BME280;17473;52.286;20.930;2022-10-04T10:09:47;100336.19;;;15.44;68.34
30724;BME280;17473;52.286;20.930;2022-10-04T10:26:01;100342.63;;;17.82;59.18
30724;BME280;17473;52.286;20.930;2022-10-04T10:29:11;100351.59;;;17.94;59.23
30724;BME280;17473;52.286;20.930;2022-10-04T10:35:26;100357.78;;;17.83;58.04
30724;BME280;17473;52.286;20.930;2022-10-04T10:38:22;100357.69;;;17.59;58.32
30724;BME280;17473;52.286;20.930;2022-10-04T10:59:09;100357.03;;;18.26;55.35
30724;BME280;17473;52.286;20.930;2022-10-04T11:15:29;100387.38;;;18.75;52.37
30724;BME280;17473;52.286;20.930;2022-10-04T11:20:43;100393.63;;;18.60;53.18
30724;BME280;17473;52.286;20.930;2022-10-04T11:24:02;100397.16;;;19.38;51.95
30724;BME280;17473;52.286;20.930;2022-10-04T11:36:16;100415.00;;;18.58;53.07
30724;BME280;17473;52.286;20.930;2022-10-04T11:42:17;100415.03;;;18.71;53.85
30724;BME280;17473;52.286;20.930;2022-10-04T11:45:24;100413.22;;;18.90;53.46
30724;BME280;17473;52.286;20.930;2022-10-04T11:51:30;100416.78;;;18.70;52.52
30724;BME280;17473;52.286;20.930;2022-10-04T11:57:39;100410.50;;;19.47;50.92
30724;BME280;17473;52.286;20.930;2022-10-04T12:00:16;100417.72;;;19.00;52.17
30724;BME280;17473;52.286;20.930;2022-10-04T12:03:30;100415.00;;;18.83;52.31
30724;BME280;17473;52.286;20.930;2022-10-04T12:06:35;100419.47;;;18.84;52.45
30724;BME280;17473;52.286;20.930;2022-10-04T12:09:37;100420.34;;;18.52;53.09
30724;BME280;17473;52.286;20.930;2022-10-04T12:12:48;100433.66;;;18.38;53.24
30724;BME280;17473;52.286;20.930;2022-10-04T12:31:30;100435.13;;;17.66;55.46
30724;BME280;17473;52.286;20.930;2022-10-04T12:37:07;100442.22;;;17.63;56.53
30724;BME280;17473;52.286;20.930;2022-10-04T12:51:51;100461.97;;;16.71;60.22
30724;BME280;17473;52.286;20.930;2022-10-04T13:00:21;100468.72;;;17.35;59.34
30724;BME280;17473;52.286;20.930;2022-10-04T13:11:56;100469.41;;;17.09;58.68
30724;BME280;17473;52.286;20.930;2022-10-04T13:21:05;100464.19;;;17.20;59.94
30724;BME280;17473;52.286;20.930;2022-10-04T13:24:36;100484.44;;;16.96;59.83
30724;BME280;17473;52.286;20.930;2022-10-04T13:27:11;100484.31;;;16.87;60.02
30724;BME280;17473;52.286;20.930;2022-10-04T13:33:15;100487.78;;;16.78;60.59
30724;BME280;17473;52.286;20.930;2022-10-04T13:36:15;100486.13;;;16.89;60.41
30724;BME280;17473;52.286;20.930;2022-10-04T13:39:05;100496.00;;;17.00;59.98
30724;BME280;17473;52.286;20.930;2022-10-04T13:54:24;100506.63;;;16.95;60.85
30724;BME280;17473;52.286;20.930;2022-10-04T13:57:36;100504.94;;;17.03;60.73
30724;BME280;17473;52.286;20.930;2022-10-04T14:00:13;100506.41;;;16.77;60.47
30724;BME280;17473;52.286;20.930;2022-10-04T14:03:22;100506.69;;;17.00;59.81
30724;BME280;17473;52.286;20.930;2022-10-04T14:06:12;100504.88;;;16.94;60.00
30724;BME280;17473;52.286;20.930;2022-10-04T14:14:53;100514.50;;;16.83;59.70
30724;BME280;17473;52.286;20.930;2022-10-04T14:24:52;100527.13;;;16.21;60.82
30724;BME280;17473;52.286;20.930;2022-10-04T14:31:06;100532.25;;;16.07;61.95
30724;BME280;17473;52.286;20.930;2022-10-04T14:59:13;100555.78;;;15.79;65.04
30724;BME280;17473;52.286;20.930;2022-10-04T15:05:04;100561.00;;;15.71;64.66
30724;BME280;17473;52.286;20.930;2022-10-04T15:07:45;100564.91;;;15.92;64.22
30724;BME280;17473;52.286;20.930;2022-10-04T15:10:27;100567.25;;;15.75;64.11
30724;BME280;17473;52.286;20.930;2022-10-04T15:13:36;100571.56;;;15.67;64.91
30724;BME280;17473;52.286;20.930;2022-10-04T15:19:07;100566.09;;;15.57;65.36
30724;BME280;17473;52.286;20.930;2022-10-04T15:24:28;100570.53;;;15.58;65.57
30724;BME280;17473;52.286;20.930;2022-10-04T15:38:59;100576.09;;;15.20;67.47
30724;BME280;17473;52.286;20.930;2022-10-04T15:41:57;100588.88;;;14.91;68.58
30724;BME280;17473;52.286;20.930;2022-10-04T15:48:29;100603.66;;;14.76;70.03
30724;BME280;17473;52.286;20.930;2022-10-04T15:51:49;100605.31;;;14.71;70.42
30724;BME280;17473;52.286;20.930;2022-10-04T15:55:21;100612.25;;;14.64;71.02
30724;BME280;17473;52.286;20.930;2022-10-04T15:58:29;100609.44;;;14.58;71.58
30724;BME280;17473;52.286;20.930;2022-10-04T16:01:43;100606.00;;;14.62;71.90
30724;BME280;17473;52.286;20.930;2022-10-04T16:04:40;100619.00;;;14.50;72.24
30724;BME280;17473;52.286;20.930;2022-10-04T16:07:36;100622.28;;;14.36;72.90
30724;BME280;17473;52.286;20.930;2022-10-04T16:15:43;100637.25;;;14.33;73.28
30724;BME280;17473;52.286;20.930;2022-10-04T16:18:58;100643.25;;;14.24;73.71
30724;BME280;17473;52.286;20.930;2022-10-04T16:22:10;100644.59;;;14.05;74.22
30724;BME280;17473;52.286;20.930;2022-10-04T16:24:47;100648.19;;;14.07;74.38
30724;BME280;17473;52.286;20.930;2022-10-04T16:30:26;100643.19;;;13.84;75.62
30724;BME280;17473;52.286;20.930;2022-10-04T16:35:48;100650.81;;;13.70;76.36
30724;BME280;17473;52.286;20.930;2022-10-04T16:38:24;100657.06;;;13.72;76.29
30724;BME280;17473;52.286;20.930;2022-10-04T16:41:14;100659.44;;;13.61;76.85
30724;BME280;17473;52.286;20.930;2022-10-04T16:43:53;100661.16;;;13.59;77.20
30724;BME280;17473;52.286;20.930;2022-10-04T16:46:40;100650.19;;;13.45;77.86
30724;BME280;17473;52.286;20.930;2022-10-04T16:49:32;100660.81;;;13.47;78.26
30724;BME280;17473;52.286;20.930;2022-10-04T16:55:30;100662.53;;;13.45;78.62
30724;BME280;17473;52.286;20.930;2022-10-04T17:13:33;100673.03;;;13.10;80.74
30724;BME280;17473;52.286;20.930;2022-10-04T17:16:36;100680.88;;;13.05;80.98
30724;BME280;17473;52.286;20.930;2022-10-04T17:19:38;100684.91;;;12.92;81.80
30724;BME280;17473;52.286;20.930;2022-10-04T17:25:21;100684.06;;;12.93;81.95
30724;BME280;17473;52.286;20.930;2022-10-04T17:29:15;100691.63;;;12.79;83.06
30724;BME280;17473;52.286;20.930;2022-10-04T17:31:20;100694.91;;;12.71;83.43
30724;BME280;17473;52.286;20.930;2022-10-04T17:34:33;100691.44;;;12.73;83.31
30724;BME280;17473;52.286;20.930;2022-10-04T17:37:25;100687.78;;;12.68;84.01
30724;BME280;17473;52.286;20.930;2022-10-04T17:40:28;100687.56;;;12.62;83.97
30724;BME280;17473;52.286;20.930;2022-10-04T17:43:38;100682.78;;;12.50;84.56
30724;BME280;17473;52.286;20.930;2022-10-04T17:46:42;100691.53;;;12.46;84.98
30724;BME280;17473;52.286;20.930;2022-10-04T17:52:25;100691.44;;;12.44;85.11
30724;BME280;17473;52.286;20.930;2022-10-04T17:55:25;100695.09;;;12.48;85.26
30724;BME280;17473;52.286;20.930;2022-10-04T17:58:02;100702.19;;;12.49;85.28
30724;BME280;17473;52.286;20.930;2022-10-04T18:01:02;100696.53;;;12.36;85.87
30724;BME280;17473;52.286;20.930;2022-10-04T18:03:50;100696.13;;;12.24;86.76
30724;BME280;17473;52.286;20.930;2022-10-04T18:09:43;100711.84;;;12.19;88.16
30724;BME280;17473;52.286;20.930;2022-10-04T18:12:37;100711.97;;;12.23;88.47
30724;BME280;17473;52.286;20.930;2022-10-04T18:15:26;100723.03;;;12.11;88.49
30724;BME280;17473;52.286;20.930;2022-10-04T18:18:39;100717.81;;;12.12;88.16
30724;BME280;17473;52.286;20.930;2022-10-04T18:21:30;100716.88;;;12.12;87.69
30724;BME280;17473;52.286;20.930;2022-10-04T18:24:19;100728.69;;;12.21;87.14
30724;BME280;17473;52.286;20.930;2022-10-04T18:27:00;100730.13;;;12.12;87.44
30724;BME280;17473;52.286;20.930;2022-10-04T18:29:41;100729.81;;;12.02;87.99
30724;BME280;17473;52.286;20.930;2022-10-04T18:32:37;100732.25;;;11.96;87.91
30724;BME280;17473;52.286;20.930;2022-10-04T18:35:32;100734.38;;;12.07;88.00
30724;BME280;17473;52.286;20.930;2022-10-04T18:38:22;100735.03;;;11.99;87.99
30724;BME280;17473;52.286;20.930;2022-10-04T18:41:01;100734.06;;;11.97;88.04
30724;BME280;17473;52.286;20.930;2022-10-04T18:46:38;100742.66;;;11.92;87.77
30724;BME280;17473;52.286;20.930;2022-10-04T18:49:22;100752.25;;;11.88;87.97
30724;BME280;17473;52.286;20.930;2022-10-04T18:52:17;100753.47;;;11.72;88.76
30724;BME280;17473;52.286;20.930;2022-10-04T18:55:56;100758.03;;;11.76;88.51
30724;BME280;17473;52.286;20.930;2022-10-04T18:58:54;100764.94;;;11.72;88.71
30724;BME280;17473;52.286;20.930;2022-10-04T19:03:14;100774.38;;;11.64;89.13
30724;BME280;17473;52.286;20.930;2022-10-04T19:08:17;100777.44;;;11.52;89.92
30724;BME280;17473;52.286;20.930;2022-10-04T19:11:56;100768.41;;;11.46;89.92
30724;BME280;17473;52.286;20.930;2022-10-04T19:14:31;100773.91;;;11.52;89.56
30724;BME280;17473;52.286;20.930;2022-10-04T19:17:22;100771.78;;;11.41;90.01
30724;BME280;17473;52.286;20.930;2022-10-04T19:20:21;100780.38;;;11.36;90.30
30724;BME280;17473;52.286;20.930;2022-10-04T19:23:33;100782.84;;;11.31;90.44
30724;BME280;17473;52.286;20.930;2022-10-04T19:29:53;100785.09;;;11.20;91.20
30724;BME280;17473;52.286;20.930;2022-10-04T19:35:49;100792.38;;;11.26;90.40
30724;BME280;17473;52.286;20.930;2022-10-04T19:47:52;100797.94;;;11.09;91.00
30724;BME280;17473;52.286;20.930;2022-10-04T19:53:06;100804.88;;;11.07;91.24
30724;BME280;17473;52.286;20.930;2022-10-04T19:55:55;100798.22;;;10.94;91.60
30724;BME280;17473;52.286;20.930;2022-10-04T19:58:59;100807.03;;;10.95;91.54
30724;BME280;17473;52.286;20.930;2022-10-04T20:01:24;100809.63;;;10.93;91.69
30724;BME280;17473;52.286;20.930;2022-10-04T20:03:52;100811.06;;;10.85;92.04
30724;BME280;17473;52.286;20.930;2022-10-04T20:06:48;100809.41;;;10.87;92.00
30724;BME280;17473;52.286;20.930;2022-10-04T20:12:33;100825.06;;;10.83;91.83
30724;BME280;17473;52.286;20.930;2022-10-04T20:17:45;100826.88;;;10.84;92.20
30724;BME280;17473;52.286;20.930;2022-10-04T20:23:01;100829.91;;;10.72;92.44
30724;BME280;17473;52.286;20.930;2022-10-04T20:31:01;100835.19;;;10.72;92.29
30724;BME280;17473;52.286;20.930;2022-10-04T20:33:44;100838.41;;;10.64;92.76
30724;BME280;17473;52.286;20.930;2022-10-04T20:42:32;100846.50;;;10.46;93.46
30724;BME280;17473;52.286;20.930;2022-10-04T20:47:49;100841.13;;;10.45;93.45
30724;BME280;17473;52.286;20.930;2022-10-04T20:50:37;100842.16;;;10.70;92.59
30724;BME280;17473;52.286;20.930;2022-10-04T20:55:43;100850.56;;;10.38;93.71
30724;BME280;17473;52.286;20.930;2022-10-04T20:58:32;100852.19;;;10.36;93.81
30724;BME280;17473;52.286;20.930;2022-10-04T21:01:25;100853.81;;;10.32;93.87
30724;BME280;17473;52.286;20.930;2022-10-04T21:04:26;100846.53;;;10.27;94.08
30724;BME280;17473;52.286;20.930;2022-10-04T21:07:04;100861.19;;;10.20;94.59
30724;BME280;17473;52.286;20.930;2022-10-04T21:09:34;100842.53;;;10.15;94.75
30724;BME280;17473;52.286;20.930;2022-10-04T21:12:03;100847.94;;;10.18;94.85
30724;BME280;17473;52.286;20.930;2022-10-04T21:14:36;100854.19;;;10.21;95.00
30724;BME280;17473;52.286;20.930;2022-10-04T21:17:32;100853.06;;;10.15;94.87
30724;BME280;17473;52.286;20.930;2022-10-04T21:19:51;100853.16;;;10.17;95.25
30724;BME280;17473;52.286;20.930;2022-10-04T21:25:00;100868.72;;;10.11;95.14
30724;BME280;17473;52.286;20.930;2022-10-04T21:27:33;100872.97;;;10.07;95.53
30724;BME280;17473;52.286;20.930;2022-10-04T21:30:04;100861.97;;;10.17;95.33
30724;BME280;17473;52.286;20.930;2022-10-04T21:32:35;100857.47;;;10.15;95.52
30724;BME280;17473;52.286;20.930;2022-10-04T21:35:04;100871.16;;;10.06;96.52
30724;BME280;17473;52.286;20.930;2022-10-04T21:37:33;100858.44;;;10.17;95.42
30724;BME280;17473;52.286;20.930;2022-10-04T21:40:00;100852.81;;;10.09;95.81
30724;BME280;17473;52.286;20.930;2022-10-04T21:42:27;100840.59;;;10.11;95.33
30724;BME280;17473;52.286;20.930;2022-10-04T21:44:54;100845.59;;;10.05;95.90
30724;BME280;17473;52.286;20.930;2022-10-04T21:47:21;100844.09;;;9.91;96.14
30724;BME280;17473;52.286;20.930;2022-10-04T21:49:49;100853.09;;;9.96;96.52
30724;BME280;17473;52.286;20.930;2022-10-04T21:52:17;100848.34;;;9.87;96.67
30724;BME280;17473;52.286;20.930;2022-10-04T21:54:45;100850.75;;;10.02;96.23
30724;BME280;17473;52.286;20.930;2022-10-04T21:57:12;100857.34;;;9.92;96.06
30724;BME280;17473;52.286;20.930;2022-10-04T21:59:39;100855.63;;;9.93;96.42